Time;durP1;ratioP1;P1;durP2;ratioP2;P2;SDS_P1;SDS_P2;PMS_P1;PMS_P2;Temp;Humidity;BMP_temperature;BMP_pressure;BME280_temperature;BME280_humidity;BME280_pressure;Samples;Min_cycle;Max_cycle;Signal;HPM_P1;HPM_P2
2022/05/12 00:02:07;;;;;;;6.00;5.27;;;;;;;18.91;48.58;94997.81;4800738;29;20438;-77
2022/05/12 00:04:34;;;;;;;5.17;4.77;;;;;;;18.94;48.50;94987.78;4784692;30;20471;-77
2022/05/12 00:06:59;;;;;;;5.40;5.00;;;;;;;18.90;48.76;94977.66;4800778;30;20216;-77
2022/05/12 00:09:26;;;;;;;5.13;4.70;;;;;;;18.93;48.69;94989.63;4800065;29;20479;-77
2022/05/12 00:11:52;;;;;;;5.77;5.37;;;;;;;18.87;48.79;94983.41;4800690;29;20265;-78
2022/05/12 00:14:18;;;;;;;5.50;5.20;;;;;;;18.91;49.23;94986.41;4784223;29;20546;-78
2022/05/12 00:16:44;;;;;;;5.57;4.83;;;;;;;18.70;49.56;94998.44;4789163;29;20209;-77
2022/05/12 00:19:10;;;;;;;5.60;5.20;;;;;;;18.80;49.31;94993.38;4783790;29;20843;-77
2022/05/12 00:21:35;;;;;;;7.37;5.13;;;;;;;18.71;49.66;94992.13;4782299;29;20964;-77
2022/05/12 00:24:01;;;;;;;6.63;6.00;;;;;;;18.66;49.67;94997.31;4782299;29;20202;-77
2022/05/12 00:26:31;;;;;;;6.57;5.93;;;;;;;18.97;49.10;94988.13;4792595;29;20193;-77
2022/05/12 00:28:58;;;;;;;5.27;4.87;;;;;;;18.68;49.66;94995.22;4800212;30;20262;-77
2022/05/12 00:31:24;;;;;;;6.33;5.73;;;;;;;18.44;50.35;94997.13;4781037;30;20436;-77
2022/05/12 00:33:50;;;;;;;5.53;5.03;;;;;;;18.48;50.06;94993.78;4782700;30;20445;-76
2022/05/12 00:36:15;;;;;;;6.23;5.83;;;;;;;18.66;49.60;94992.00;4795172;29;20439;-77
2022/05/12 00:38:41;;;;;;;5.90;5.50;;;;;;;18.23;50.36;94993.25;4799637;29;20234;-77
2022/05/12 00:41:07;;;;;;;5.83;5.43;;;;;;;18.58;49.39;94987.88;4739561;29;1305542;-77
2022/05/12 00:43:45;;;;;;;5.60;5.20;;;;;;;18.43;49.73;94992.88;4782562;29;20198;-78
2022/05/12 00:46:13;;;;;;;5.67;4.90;;;;;;;18.30;49.56;94984.16;4783336;30;20248;-76
2022/05/12 00:48:39;;;;;;;7.70;5.67;;;;;;;18.21;50.04;94990.03;4782696;29;20468;-77
2022/05/12 00:51:06;;;;;;;8.70;5.63;;;;;;;18.24;49.45;94994.88;4781682;30;20440;-77
2022/05/12 00:53:34;;;;;;;5.30;4.80;;;;;;;18.34;49.22;94989.78;4790083;29;20443;-79
2022/05/12 00:56:00;;;;;;;5.67;5.17;;;;;;;18.47;48.86;94989.53;4800928;30;20519;-77
2022/05/12 00:58:28;;;;;;;5.27;4.87;;;;;;;18.26;49.10;94988.31;4783955;30;20541;-77
2022/05/12 01:00:54;;;;;;;5.70;5.20;;;;;;;18.31;49.26;94990.28;4800715;29;20439;-77
2022/05/12 01:03:23;;;;;;;5.43;5.00;;;;;;;18.32;49.31;94991.88;4776400;30;20440;-77
2022/05/12 01:05:50;;;;;;;6.10;5.50;;;;;;;18.25;49.51;95001.78;4767801;29;20267;-76
2022/05/12 01:08:17;;;;;;;8.00;5.17;;;;;;;18.31;49.46;95003.53;4781232;30;20472;-77
2022/05/12 01:10:46;;;;;;;5.80;5.30;;;;;;;18.32;49.15;95003.25;4786801;29;20446;-77
2022/05/12 01:13:12;;;;;;;5.93;5.40;;;;;;;18.23;50.14;95004.69;4787847;29;20463;-77
2022/05/12 01:15:37;;;;;;;6.57;5.93;;;;;;;18.23;49.74;94999.41;4783494;29;20452;-77
2022/05/12 01:18:17;;;;;;;6.73;6.00;;;;;;;18.24;50.20;95006.28;4800622;30;20187;-77
2022/05/12 01:20:43;;;;;;;6.90;6.30;;;;;;;18.11;50.56;95002.03;4783544;30;20283;-77
2022/05/12 01:23:15;;;;;;;6.10;5.13;;;;;;;18.21;50.25;95000.66;4784022;30;20508;-77
2022/05/12 01:25:40;;;;;;;11.07;6.67;;;;;;;18.05;50.95;95008.28;4799978;29;20484;-78
2022/05/12 01:28:06;;;;;;;6.03;5.50;;;;;;;18.11;50.64;95009.97;4800117;30;20467;-77
2022/05/12 01:30:31;;;;;;;6.13;5.63;;;;;;;18.06;51.26;95009.91;4773216;30;20297;-78
2022/05/12 01:32:56;;;;;;;6.27;5.67;;;;;;;18.12;51.26;95006.31;4781920;29;20206;-77
2022/05/12 01:35:24;;;;;;;7.07;5.27;;;;;;;17.94;51.33;95007.22;4786482;30;20197;-78
2022/05/12 01:37:50;;;;;;;6.07;5.17;;;;;;;17.76;52.01;95010.78;4796213;29;20200;-77
2022/05/12 01:40:19;;;;;;;6.10;5.60;;;;;;;18.00;51.55;95010.81;4787619;29;20510;-77
2022/05/12 01:42:45;;;;;;;7.10;6.10;;;;;;;17.78;51.52;95013.22;4780658;30;20504;-77
2022/05/12 01:45:11;;;;;;;6.50;5.90;;;;;;;17.68;52.20;95003.19;4781091;30;20436;-77
2022/05/12 01:47:37;;;;;;;6.87;6.27;;;;;;;17.87;52.03;95008.38;4791939;29;20273;-77
2022/05/12 01:50:04;;;;;;;7.40;6.70;;;;;;;17.72;51.92;95014.94;4800338;29;20509;-77
2022/05/12 01:52:30;;;;;;;6.10;5.60;;;;;;;17.66;51.89;95009.72;4799389;29;20488;-77
2022/05/12 01:54:55;;;;;;;5.40;5.00;;;;;;;17.56;52.34;95010.31;4800004;29;20443;-77
2022/05/12 01:57:22;;;;;;;10.23;5.93;;;;;;;17.57;52.13;95009.28;4793088;29;20204;-77
2022/05/12 01:59:49;;;;;;;6.50;6.00;;;;;;;17.47;52.67;95006.38;4781976;29;20201;-77
2022/05/12 02:02:14;;;;;;;6.60;6.00;;;;;;;17.43;52.68;95007.88;4782512;29;20504;-77
2022/05/12 02:04:40;;;;;;;5.40;4.90;;;;;;;17.52;52.52;95017.09;4782305;29;20782;-77
2022/05/12 02:07:06;;;;;;;9.83;6.17;;;;;;;17.26;53.23;95016.47;4783634;30;20198;-77
2022/05/12 02:09:32;;;;;;;10.30;7.30;;;;;;;17.39;52.92;95015.47;4791345;29;20266;-77
2022/05/12 02:11:57;;;;;;;28.33;8.23;;;;;;;17.20;52.94;95017.38;4781938;30;20791;-78
2022/05/12 02:14:23;;;;;;;6.80;5.87;;;;;;;17.24;52.64;95023.03;4781453;29;20198;-77
2022/05/12 02:16:48;;;;;;;7.37;5.63;;;;;;;17.09;53.63;95023.44;4799484;30;20678;-77
2022/05/12 02:19:13;;;;;;;8.53;5.40;;;;;;;16.87;53.63;95029.22;4799186;29;20194;-77
2022/05/12 02:21:39;;;;;;;8.73;6.27;;;;;;;17.05;53.12;95020.44;4783154;29;20224;-77
2022/05/12 02:24:05;;;;;;;6.30;5.70;;;;;;;17.11;53.61;95024.00;4798638;29;20197;-77
2022/05/12 02:26:30;;;;;;;6.37;5.87;;;;;;;17.11;53.00;95021.38;4795546;29;20193;-77
2022/05/12 02:28:56;;;;;;;6.13;5.67;;;;;;;17.22;53.09;95022.44;4798377;30;20483;-77
2022/05/12 02:31:22;;;;;;;6.27;5.67;;;;;;;17.18;52.85;95032.66;4791128;29;20197;-77
2022/05/12 02:33:47;;;;;;;6.03;5.53;;;;;;;17.23;52.26;95026.72;4791299;30;20197;-77
2022/05/12 02:36:13;;;;;;;6.50;5.90;;;;;;;17.03;53.29;95025.13;4790565;29;20202;-77
2022/05/12 02:38:39;;;;;;;6.37;5.87;;;;;;;17.06;52.84;95027.34;4784799;30;20194;-77
2022/05/12 02:41:05;;;;;;;6.20;5.60;;;;;;;17.01;53.61;95031.69;4784889;29;20266;-77
2022/05/12 02:43:31;;;;;;;5.43;5.03;;;;;;;16.77;54.15;95027.09;4799095;29;20459;-77
2022/05/12 02:46:00;;;;;;;6.17;5.57;;;;;;;17.07;53.15;95028.94;4785473;30;20201;-76
2022/05/12 02:48:28;;;;;;;6.20;5.37;;;;;;;16.94;53.20;95029.97;4788626;29;20497;-77
2022/05/12 02:50:54;;;;;;;8.37;6.63;;;;;;;16.98;53.35;95023.19;4770228;30;20447;-76
2022/05/12 02:53:20;;;;;;;6.60;6.00;;;;;;;17.01;52.96;95029.06;4802591;29;20439;-76
2022/05/12 02:55:46;;;;;;;6.10;5.60;;;;;;;17.16;53.15;95024.16;4802766;29;20547;-77
2022/05/12 02:58:12;;;;;;;7.57;6.97;;;;;;;16.96;53.64;95027.91;4792437;29;20195;-77
2022/05/12 03:00:38;;;;;;;6.80;6.10;;;;;;;16.93;53.48;95028.31;4791061;30;20201;-77
2022/05/12 03:03:05;;;;;;;6.37;5.87;;;;;;;17.02;52.83;95031.47;4802309;29;20439;-77
2022/05/12 03:05:31;;;;;;;6.73;6.20;;;;;;;16.87;54.22;95034.53;4786105;29;20445;-76
2022/05/12 03:07:57;;;;;;;8.90;5.93;;;;;;;16.83;54.01;95036.00;4802522;30;20479;-77
2022/05/12 03:10:23;;;;;;;7.57;6.80;;;;;;;16.90;54.12;95034.09;4798766;29;20456;-77
2022/05/12 03:12:49;;;;;;;12.30;6.67;;;;;;;16.91;54.16;95037.53;4784377;30;20224;-77
2022/05/12 03:15:15;;;;;;;6.97;6.37;;;;;;;16.93;53.58;95043.41;4784342;29;20467;-77
2022/05/12 03:17:43;;;;;;;9.37;7.20;;;;;;;17.00;53.56;95038.00;4784729;30;20480;-76
2022/05/12 03:20:11;;;;;;;7.00;6.43;;;;;;;16.87;53.82;95045.09;4788528;29;20456;-77
2022/05/12 03:22:37;;;;;;;8.43;6.60;;;;;;;16.90;53.86;95041.19;4797061;30;20447;-78
2022/05/12 03:25:04;;;;;;;7.10;6.53;;;;;;;16.86;54.03;95046.09;4785418;29;20454;-78
2022/05/12 03:27:31;;;;;;;6.60;6.10;;;;;;;16.93;53.85;95052.13;4785340;30;20201;-77
2022/05/12 03:29:56;;;;;;;9.03;6.97;;;;;;;17.03;54.11;95053.44;4801467;29;20435;-77
2022/05/12 03:32:23;;;;;;;7.47;6.77;;;;;;;17.21;53.07;95061.31;4801748;29;20438;-77
2022/05/12 03:34:49;;;;;;;11.13;7.17;;;;;;;16.90;54.02;95060.53;4802318;29;20201;-77
2022/05/12 03:37:15;;;;;;;7.97;7.07;;;;;;;16.67;54.35;95065.66;4794008;29;20463;-76
2022/05/12 03:39:41;;;;;;;11.43;7.10;;;;;;;16.88;54.23;95067.84;4801743;29;20431;-79
2022/05/12 03:42:08;;;;;;;7.70;6.07;;;;;;;16.97;53.64;95069.16;4788166;29;20512;-77
2022/05/12 03:44:54;;;;;;;7.87;6.67;;;;;;;16.99;53.77;95074.22;4768280;30;20233;-77
2022/05/12 03:47:33;;;;;;;6.60;6.17;;;;;;;17.10;53.27;95075.31;4798875;29;20443;-77
2022/05/12 03:50:20;;;;;;;7.00;6.30;;;;;;;17.11;53.80;95076.91;4782308;30;20440;-77
2022/05/12 03:52:47;;;;;;;7.07;6.37;;;;;;;17.30;52.89;95080.31;4767831;30;20429;-78
2022/05/12 03:55:13;;;;;;;7.40;6.70;;;;;;;17.24;53.31;95075.91;4774183;30;20455;-77
2022/05/12 03:57:41;;;;;;;7.93;7.23;;;;;;;17.26;52.96;95085.25;4785668;30;20462;-76
2022/05/12 04:00:08;;;;;;;8.87;7.70;;;;;;;17.00;53.93;95083.78;4784966;29;20439;-77
2022/05/12 04:02:33;;;;;;;8.10;7.40;;;;;;;16.98;53.99;95083.19;4797794;29;20445;-78
2022/05/12 04:04:59;;;;;;;8.80;7.30;;;;;;;17.15;53.59;95084.19;4794039;30;20454;-77
2022/05/12 04:07:25;;;;;;;10.33;7.20;;;;;;;17.20;53.36;95085.34;4795371;29;20209;-77
2022/05/12 04:09:51;;;;;;;8.40;7.63;;;;;;;17.23;53.68;95092.84;4800667;29;20594;-77
2022/05/12 04:12:17;;;;;;;9.50;7.53;;;;;;;17.22;53.83;95091.22;4800472;29;20447;-77
2022/05/12 04:14:44;;;;;;;8.40;7.70;;;;;;;17.27;53.60;95091.34;4796920;30;20836;-76
2022/05/12 04:17:14;;;;;;;9.13;8.33;;;;;;;17.46;52.99;95092.09;4786268;29;20444;-77
2022/05/12 04:19:40;;;;;;;10.10;9.10;;;;;;;17.63;52.63;95084.31;4784362;29;20488;-78
2022/05/12 04:22:06;;;;;;;9.80;8.80;;;;;;;17.61;52.42;95081.91;4800856;30;20440;-78
2022/05/12 04:24:32;;;;;;;9.90;8.70;;;;;;;17.91;52.12;95086.34;4783158;29;20440;-77
2022/05/12 04:26:58;;;;;;;10.40;9.33;;;;;;;18.00;51.91;95090.25;4783227;30;20212;-77
2022/05/12 04:29:24;;;;;;;11.00;9.90;;;;;;;17.80;51.94;95085.28;4783677;29;20482;-77
2022/05/12 04:31:50;;;;;;;11.30;8.63;;;;;;;17.82;51.78;95088.50;4776993;30;20202;-77
2022/05/12 04:37:00;;;;;;;10.20;9.27;;;;;;;18.28;50.88;95091.41;4802028;30;20410;-77
2022/05/12 04:39:25;;;;;;;12.13;10.87;;;;;;;18.46;50.34;95104.53;4784663;30;20439;-77
2022/05/12 04:41:50;;;;;;;9.17;8.33;;;;;;;18.52;50.16;95095.66;4800596;30;20237;-77
2022/05/12 04:44:16;;;;;;;9.50;8.50;;;;;;;18.65;49.71;95102.56;4799994;29;20197;-77
2022/05/12 04:46:42;;;;;;;9.07;8.37;;;;;;;18.56;49.58;95103.94;4795973;29;20201;-77
2022/05/12 04:49:09;;;;;;;9.93;8.70;;;;;;;18.56;49.03;95103.16;4782300;30;20234;-77
2022/05/12 04:51:37;;;;;;;12.63;9.60;;;;;;;18.69;49.30;95116.16;4784324;29;20246;-77
2022/05/12 04:54:02;;;;;;;11.53;8.43;;;;;;;18.41;50.04;95115.03;4798198;29;20439;-77
2022/05/12 04:56:28;;;;;;;9.53;8.53;;;;;;;18.72;48.79;95113.84;4798883;29;20442;-78
2022/05/12 04:58:54;;;;;;;10.47;9.13;;;;;;;18.18;50.54;95118.50;4800736;29;20200;-78
2022/05/12 05:01:19;;;;;;;10.33;8.30;;;;;;;18.42;50.22;95119.31;4777344;30;20286;-78
2022/05/12 05:03:45;;;;;;;8.20;7.50;;;;;;;18.73;48.80;95120.75;4799667;29;20451;-78
2022/05/12 05:06:11;;;;;;;10.10;8.30;;;;;;;18.67;48.69;95112.94;4782267;30;20284;-78
2022/05/12 05:08:37;;;;;;;10.77;8.37;;;;;;;18.66;48.85;95117.41;4787419;29;20470;-78
2022/05/12 05:11:06;;;;;;;8.30;7.37;;;;;;;19.12;47.96;95117.56;4799570;30;20472;-78
2022/05/12 05:13:32;;;;;;;9.53;8.10;;;;;;;19.43;47.14;95110.19;4789828;29;20247;-78
2022/05/12 05:15:58;;;;;;;9.83;8.93;;;;;;;18.84;48.35;95116.50;4782487;30;20467;-78
2022/05/12 05:18:24;;;;;;;15.00;9.13;;;;;;;19.21;48.14;95124.09;4782231;29;20472;-78
2022/05/12 05:20:50;;;;;;;9.80;8.90;;;;;;;19.06;48.33;95121.16;4788937;29;20463;-78
2022/05/12 05:23:19;;;;;;;15.03;10.33;;;;;;;19.23;47.95;95124.69;4766679;30;20439;-79
2022/05/12 05:25:44;;;;;;;9.00;8.20;;;;;;;18.87;48.65;95120.53;4776787;29;20190;-78
2022/05/12 05:28:11;;;;;;;8.50;7.80;;;;;;;19.19;48.06;95118.22;4798613;30;20841;-78
2022/05/12 05:30:37;;;;;;;9.80;8.30;;;;;;;19.20;48.49;95124.34;4799871;29;20201;-78
2022/05/12 05:33:03;;;;;;;9.13;8.23;;;;;;;19.67;47.06;95114.34;4800426;30;20951;-78
2022/05/12 05:35:29;;;;;;;9.10;8.10;;;;;;;19.76;46.42;95111.31;4799598;29;20551;-78
2022/05/12 05:37:55;;;;;;;9.70;8.80;;;;;;;19.84;46.49;95116.22;4797001;29;20456;-77
2022/05/12 05:40:25;;;;;;;11.90;8.97;;;;;;;20.01;46.74;95116.22;4799829;29;20476;-78
2022/05/12 05:42:51;;;;;;;11.40;8.70;;;;;;;20.18;46.05;95113.56;4783205;30;20666;-78
2022/05/12 05:45:18;;;;;;;10.43;9.27;;;;;;;20.65;45.32;95121.19;4800365;30;20498;-78
2022/05/12 05:47:47;;;;;;;11.07;9.47;;;;;;;20.72;44.31;95118.34;4797074;29;20440;-77
2022/05/12 05:50:15;;;;;;;10.27;9.23;;;;;;;21.34;43.81;95114.53;4783597;30;20439;-77
2022/05/12 05:55:25;;;;;;;11.93;8.90;;;;;;;20.85;44.60;95118.00;4794297;29;20455;-79
2022/05/12 05:57:50;;;;;;;10.47;9.67;;;;;;;21.21;43.49;95116.56;4783491;30;20436;-78
2022/05/12 06:00:17;;;;;;;9.37;8.57;;;;;;;21.20;43.18;95114.94;4781826;29;20195;-78
2022/05/12 06:02:43;;;;;;;17.10;9.37;;;;;;;20.84;44.17;95113.72;4781766;30;20194;-77
2022/05/12 06:05:08;;;;;;;10.63;9.57;;;;;;;21.53;42.75;95107.88;4779434;30;20439;-78
2022/05/12 06:07:40;;;;;;;56.27;13.43;;;;;;;21.05;43.94;95122.75;4798293;29;20635;-78
2022/05/12 06:10:07;;;;;;;14.73;11.00;;;;;;;22.03;42.11;95117.34;4781696;30;20623;-78
2022/05/12 06:12:33;;;;;;;14.13;10.87;;;;;;;22.27;41.31;95117.03;4771136;30;20469;-78
2022/05/12 06:14:59;;;;;;;10.23;9.37;;;;;;;22.56;40.94;95120.16;4799810;29;20450;-79
2022/05/12 06:17:26;;;;;;;11.40;10.30;;;;;;;22.00;41.18;95114.38;4775994;30;20433;-78
2022/05/12 06:19:52;;;;;;;12.27;10.53;;;;;;;22.22;41.40;95112.44;4781490;30;20701;-78
2022/05/12 06:22:20;;;;;;;28.80;12.90;;;;;;;22.15;41.71;95113.72;4781305;30;20447;-78
2022/05/12 06:24:49;;;;;;;14.03;10.93;;;;;;;21.70;42.69;95115.72;4788681;29;20456;-78
2022/05/12 06:27:22;;;;;;;15.17;11.17;;;;;;;21.28;44.15;95115.56;4782037;30;20440;-77
2022/05/12 06:29:48;;;;;;;12.70;10.67;;;;;;;21.56;42.99;95110.00;4795283;29;20577;-77
2022/05/12 06:32:15;;;;;;;13.47;12.10;;;;;;;21.77;42.52;95118.19;4797001;29;20513;-77
2022/05/12 06:34:45;;;;;;;12.03;10.80;;;;;;;21.97;42.15;95123.72;4784267;30;20451;-77
2022/05/12 06:37:11;;;;;;;15.50;12.07;;;;;;;21.81;42.63;95116.63;4799444;29;20431;-77
2022/05/12 06:39:37;;;;;;;12.17;11.00;;;;;;;21.73;42.94;95117.09;4799701;29;20441;-77
2022/05/12 06:42:03;;;;;;;12.63;11.40;;;;;;;21.19;44.01;95118.66;4782654;30;20241;-78
2022/05/12 06:44:29;;;;;;;12.63;11.33;;;;;;;22.33;41.79;95115.19;4799708;29;20502;-78
2022/05/12 06:46:55;;;;;;;13.20;11.77;;;;;;;22.59;41.11;95116.97;4783548;29;20198;-78
2022/05/12 06:49:21;;;;;;;15.20;10.80;;;;;;;21.55;43.09;95111.09;4782173;29;20490;-78
2022/05/12 06:51:47;;;;;;;13.80;12.20;;;;;;;21.99;42.54;95118.94;4785975;29;20512;-78
2022/05/12 06:54:13;;;;;;;14.13;11.50;;;;;;;21.97;42.24;95117.59;4783494;29;20281;-77
2022/05/12 06:56:38;;;;;;;13.60;11.60;;;;;;;22.89;40.38;95115.50;4781534;30;20194;-78
2022/05/12 06:59:04;;;;;;;14.30;11.70;;;;;;;23.39;39.49;95111.47;4782060;29;20547;-78
2022/05/12 07:01:30;;;;;;;11.83;10.60;;;;;;;23.39;39.31;95105.28;4782603;30;20195;-77
2022/05/12 07:03:58;;;;;;;12.50;11.20;;;;;;;23.68;38.81;95112.84;4796627;29;20225;-78
2022/05/12 07:06:23;;;;;;;13.67;12.33;;;;;;;24.27;37.87;95106.19;4783484;30;20251;-77
2022/05/12 07:08:49;;;;;;;11.33;10.23;;;;;;;24.06;38.26;95102.75;4791523;29;20509;-78
2022/05/12 07:11:14;;;;;;;14.00;12.30;;;;;;;23.92;38.53;95107.81;4799304;30;20200;-78
2022/05/12 07:13:40;;;;;;;16.00;14.60;;;;;;;23.50;39.38;95109.59;4782263;29;20194;-78
2022/05/12 07:16:07;;;;;;;18.40;14.30;;;;;;;24.20;38.15;95109.13;4796237;29;20198;-78
2022/05/12 07:18:34;;;;;;;16.23;14.70;;;;;;;24.27;38.03;95107.00;4789601;30;20193;-78
2022/05/12 07:26:35;;;;;;;13.57;11.93;;;;;;;24.24;37.94;95099.50;4800900;30;20411;-77
2022/05/12 07:29:02;;;;;;;15.67;14.00;;;;;;;24.91;37.00;95099.41;4791190;29;20583;-77
2022/05/12 07:31:28;;;;;;;15.17;13.57;;;;;;;25.60;36.11;95096.94;4784454;30;20866;-78
2022/05/12 07:33:54;;;;;;;14.17;12.67;;;;;;;25.46;36.38;95097.56;4784342;30;20447;-78
2022/05/12 07:36:23;;;;;;;12.03;11.03;;;;;;;24.90;37.27;95089.75;4790326;30;20238;-77
2022/05/12 07:38:49;;;;;;;14.40;12.77;;;;;;;25.31;36.67;95086.94;4784032;29;20432;-78
2022/05/12 07:41:17;;;;;;;13.60;12.20;;;;;;;25.57;35.96;95084.06;4783527;29;20514;-78
2022/05/12 07:43:44;;;;;;;15.40;13.90;;;;;;;25.00;36.69;95089.69;4783947;30;20446;-78
2022/05/12 07:46:12;;;;;;;16.90;15.40;;;;;;;25.30;36.01;95088.78;4787541;29;20436;-78
2022/05/12 07:48:39;;;;;;;14.27;12.80;;;;;;;25.37;35.86;95093.06;4784108;30;20491;-77
2022/05/12 07:51:05;;;;;;;15.07;13.53;;;;;;;25.49;35.27;95091.63;4781244;30;20451;-77
2022/05/12 07:53:31;;;;;;;16.13;14.53;;;;;;;24.67;37.12;95085.81;4799864;29;20454;-77
2022/05/12 07:55:57;;;;;;;14.27;12.90;;;;;;;24.80;36.45;95092.47;4783647;30;20536;-77
2022/05/12 07:58:23;;;;;;;14.93;13.57;;;;;;;24.99;36.33;95081.97;4794289;29;20439;-78
2022/05/12 08:00:48;;;;;;;13.20;12.10;;;;;;;25.30;35.57;95082.63;4777854;30;20193;-77
2022/05/12 08:03:14;;;;;;;14.57;13.17;;;;;;;25.96;34.83;95077.94;4797993;29;20474;-78
2022/05/12 08:05:40;;;;;;;13.90;12.60;;;;;;;25.88;35.36;95082.78;4796338;30;20229;-78
2022/05/12 08:08:06;;;;;;;15.83;14.17;;;;;;;26.48;34.22;95084.41;4798703;29;20220;-78
2022/05/12 08:10:32;;;;;;;15.20;13.70;;;;;;;26.59;34.18;95080.56;4798624;29;20202;-77
2022/05/12 08:12:58;;;;;;;16.10;14.60;;;;;;;25.74;35.65;95079.13;4798524;30;20451;-77
2022/05/12 08:15:25;;;;;;;15.50;13.63;;;;;;;26.21;34.49;95083.06;4782083;30;20445;-78
2022/05/12 08:17:55;;;;;;;15.73;14.00;;;;;;;26.18;34.00;95075.59;4798574;30;20257;-79
2022/05/12 08:20:21;;;;;;;14.90;13.50;;;;;;;25.10;35.17;95073.59;4794002;29;20451;-78
2022/05/12 08:22:46;;;;;;;13.40;12.20;;;;;;;26.52;33.52;95080.06;4798205;30;20447;-78
2022/05/12 08:25:13;;;;;;;14.93;12.73;;;;;;;26.66;33.47;95072.19;4798164;29;20204;-79
2022/05/12 08:27:39;;;;;;;15.47;13.90;;;;;;;26.32;33.57;95069.56;4799497;29;20324;-78
2022/05/12 08:30:08;;;;;;;21.80;14.97;;;;;;;26.62;33.04;95069.28;4777125;30;20947;-78
2022/05/12 08:32:34;;;;;;;14.80;13.30;;;;;;;26.91;32.86;95078.34;4799331;29;20434;-78
2022/05/12 08:35:00;;;;;;;15.47;12.77;;;;;;;26.78;32.62;95079.84;4799791;29;20506;-78
2022/05/12 08:37:25;;;;;;;12.30;11.20;;;;;;;27.45;31.69;95079.81;4800862;29;20227;-78
2022/05/12 08:39:51;;;;;;;12.30;11.10;;;;;;;27.28;31.29;95074.97;4800089;29;20640;-76
2022/05/12 08:42:33;;;;;;;12.17;10.87;;;;;;;27.72;30.61;95068.41;4782791;30;20202;-78
2022/05/12 08:44:59;;;;;;;9.70;8.90;;;;;;;27.89;29.39;95064.41;4773958;30;20215;-78
2022/05/12 08:47:35;;;;;;;8.00;7.20;;;;;;;27.89;29.13;95067.91;4797756;29;20645;-77
2022/05/12 08:50:03;;;;;;;11.90;8.93;;;;;;;27.18;30.24;95067.00;4799203;29;20825;-78
2022/05/12 08:52:38;;;;;;;8.37;7.67;;;;;;;27.92;29.95;95066.50;4798126;30;20470;-78
2022/05/12 08:55:35;;;;;;;6.13;5.43;;;;;;;26.71;29.81;95066.75;4798924;29;20442;-77
2022/05/12 08:58:03;;;;;;;6.77;6.10;;;;;;;26.59;30.38;95064.47;4785561;29;20450;-77
2022/05/12 09:00:42;;;;;;;32.47;7.83;;;;;;;27.69;29.11;95066.31;4795098;29;20443;-78
2022/05/12 09:03:27;;;;;;;6.37;5.77;;;;;;;27.32;29.48;95062.53;4800856;29;20426;-78
2022/05/12 09:06:13;;;;;;;6.10;5.60;;;;;;;27.34;29.38;95062.22;4795314;29;20463;-77
2022/05/12 09:09:00;;;;;;;6.10;5.60;;;;;;;28.51;27.67;95058.75;4787695;29;20472;-77
2022/05/12 09:11:40;;;;;;;8.03;5.80;;;;;;;28.72;27.22;95054.63;4788023;29;20429;-77
2022/05/12 09:14:12;;;;;;;12.47;5.60;;;;;;;28.73;27.51;95055.44;4791980;29;20518;-77
2022/05/12 09:16:38;;;;;;;5.30;4.80;;;;;;;26.42;31.05;95058.72;4791062;29;20431;-77
2022/05/12 09:19:04;;;;;;;5.60;5.20;;;;;;;27.34;29.39;95059.53;4780850;29;20935;-77
2022/05/12 09:21:36;;;;;;;6.70;5.13;;;;;;;27.93;28.88;95058.16;4792323;29;20197;-77
2022/05/12 09:24:03;;;;;;;6.57;6.00;;;;;;;27.24;29.11;95053.22;4790862;29;20501;-77
2022/05/12 09:27:05;;;;;;;5.30;4.90;;;;;;;27.98;28.62;95059.94;4777238;29;20449;-77
2022/05/12 09:29:31;;;;;;;5.10;4.70;;;;;;;27.06;28.95;95054.78;4788479;29;20483;-77
2022/05/12 09:32:03;;;;;;;5.27;4.70;;;;;;;27.71;28.10;95042.59;4792874;29;20447;-77
2022/05/12 09:34:40;;;;;;;4.87;4.37;;;;;;;27.52;28.53;95063.34;4794680;29;20454;-77
2022/05/12 09:37:26;;;;;;;5.00;4.60;;;;;;;28.21;27.77;95053.66;4803858;29;20442;-77
2022/05/12 09:39:55;;;;;;;14.10;4.80;;;;;;;29.07;26.58;95049.59;4792676;29;20431;-77
2022/05/12 09:42:29;;;;;;;6.53;5.93;;;;;;;28.07;28.27;95046.63;4787941;29;20444;-77
2022/05/12 09:45:03;;;;;;;5.07;4.10;;;;;;;27.77;27.13;95049.47;4782291;29;20450;-78
2022/05/12 09:47:29;;;;;;;5.40;5.00;;;;;;;28.38;27.17;95041.50;4780869;29;20444;-78
2022/05/12 09:50:20;;;;;;;9.43;5.47;;;;;;;27.54;28.31;95040.44;4786342;29;20473;-77
2022/05/12 09:52:55;;;;;;;5.90;3.93;;;;;;;27.62;26.29;95036.28;4793261;30;20440;-77
2022/05/12 09:55:30;;;;;;;5.63;4.77;;;;;;;28.94;24.79;95047.72;4778316;29;20435;-77
2022/05/12 09:58:01;;;;;;;9.90;5.17;;;;;;;28.40;26.39;95028.53;4799052;30;20427;-77
2022/05/12 10:00:30;;;;;;;20.87;6.47;;;;;;;28.02;27.28;95024.09;4779846;30;20427;-77
2022/05/12 10:09:12;;;;;;;6.87;4.83;;;;;;;29.45;25.65;95018.91;4793280;29;20515;-78
2022/05/12 10:11:47;;;;;;;5.37;4.87;;;;;;;29.20;25.80;95021.84;4794291;29;20455;-78
2022/05/12 10:14:21;;;;;;;5.07;4.83;;;;;;;28.50;26.83;95014.09;4793554;29;20424;-78
2022/05/12 10:16:47;;;;;;;4.80;4.40;;;;;;;28.75;26.20;95005.53;4794514;29;20945;-78
2022/05/12 10:19:22;;;;;;;34.80;7.30;;;;;;;29.23;25.72;95000.78;4795844;29;20448;-78
2022/05/12 10:21:54;;;;;;;4.57;4.20;;;;;;;29.52;24.61;95003.88;4796234;29;20443;-77
2022/05/12 10:24:39;;;;;;;4.53;4.20;;;;;;;27.99;26.14;95002.38;4796053;29;20496;-77
2022/05/12 10:27:27;;;;;;;21.73;6.70;;;;;;;28.89;25.28;94992.03;4779346;29;20489;-78
2022/05/12 10:30:05;;;;;;;42.47;8.43;;;;;;;30.01;23.97;94995.16;4781577;29;20491;-77
2022/05/12 10:32:36;;;;;;;5.30;4.80;;;;;;;30.45;23.05;94986.19;4798077;29;20445;-77
2022/05/12 10:35:19;;;;;;;20.10;6.20;;;;;;;29.50;24.03;94978.28;4796880;29;20446;-77
2022/05/12 10:38:03;;;;;;;9.77;5.73;;;;;;;29.28;24.90;94987.97;4791056;29;20447;-77
2022/05/12 10:40:48;;;;;;;8.90;4.70;;;;;;;28.17;24.44;94979.97;4796802;29;20476;-77
2022/05/12 10:43:51;;;;;;;4.30;3.77;;;;;;;28.03;24.09;94984.53;4788519;29;20467;-77
2022/05/12 10:47:07;;;;;;;3.80;3.40;;;;;;;29.20;23.00;94965.25;4772630;30;20446;-77
2022/05/12 10:49:46;;;;;;;5.10;3.30;;;;;;;28.81;23.02;94965.78;4758855;29;20517;-77
2022/05/12 10:52:26;;;;;;;3.90;3.50;;;;;;;29.47;22.43;94962.75;4783905;29;20558;-77
2022/05/12 10:55:28;;;;;;;4.30;4.00;;;;;;;29.76;22.89;94960.41;4796269;30;20443;-78
2022/05/12 10:58:23;;;;;;;5.43;3.63;;;;;;;29.52;23.71;94959.91;4792687;29;20436;-77
2022/05/12 11:00:55;;;;;;;9.37;4.73;;;;;;;30.01;22.84;94963.56;4798197;29;20453;-78
2022/05/12 11:03:23;;;;;;;3.33;2.93;;;;;;;28.94;23.22;94946.09;4783517;30;20442;-77
2022/05/12 11:05:59;;;;;;;4.60;3.23;;;;;;;29.09;23.56;94957.66;4800806;29;20452;-78
2022/05/12 11:08:46;;;;;;;3.40;3.10;;;;;;;28.02;23.18;94948.75;4784115;29;20466;-77
2022/05/12 11:11:17;;;;;;;6.30;4.10;;;;;;;29.17;22.96;94951.56;4798726;29;20522;-77
2022/05/12 11:14:06;;;;;;;4.40;3.80;;;;;;;29.20;24.26;94948.28;4800672;29;20493;-77
2022/05/12 11:16:55;;;;;;;5.20;4.30;;;;;;;28.81;25.78;94939.66;4797339;29;20436;-78
2022/05/12 11:19:24;;;;;;;5.03;4.53;;;;;;;28.98;25.71;94949.78;4769099;30;20465;-78
2022/05/12 11:21:57;;;;;;;8.40;5.57;;;;;;;29.76;24.94;94938.81;4798500;29;20436;-78
2022/05/12 11:24:35;;;;;;;4.47;4.17;;;;;;;30.17;24.18;94943.16;4799358;29;20431;-78
2022/05/12 11:27:44;;;;;;;4.20;4.00;;;;;;;31.03;23.01;94940.22;4799802;29;20435;-77
2022/05/12 11:30:36;;;;;;;4.37;4.13;;;;;;;31.05;23.13;94935.31;4799238;29;20449;-78
2022/05/12 11:33:13;;;;;;;5.00;4.50;;;;;;;31.63;22.69;94938.66;4798356;30;20507;-77
2022/05/12 11:35:45;;;;;;;4.27;3.87;;;;;;;31.02;23.29;94927.81;4799729;29;20425;-77
2022/05/12 11:38:40;;;;;;;13.50;4.60;;;;;;;31.42;22.62;94924.97;4798994;29;20457;-77
2022/05/12 11:41:27;;;;;;;4.80;4.30;;;;;;;30.35;23.66;94924.34;4784170;30;20470;-77
2022/05/12 11:44:26;;;;;;;4.90;4.40;;;;;;;31.31;22.59;94910.97;4779829;30;20438;-77
2022/05/12 11:47:10;;;;;;;4.83;4.30;;;;;;;31.26;22.65;94909.19;4796057;29;20488;-78
2022/05/12 11:50:13;;;;;;;5.77;5.23;;;;;;;32.42;21.64;94906.66;4773735;30;20972;-77
2022/05/12 11:53:36;;;;;;;4.20;3.80;;;;;;;31.62;22.23;94897.22;4744480;30;20454;-78
2022/05/12 11:56:09;;;;;;;6.33;4.50;;;;;;;31.64;22.35;94899.63;4746142;30;20446;-78
2022/05/12 11:58:44;;;;;;;4.63;4.30;;;;;;;32.19;22.30;94896.09;4738817;30;20976;-79
2022/05/12 12:01:22;;;;;;;3.90;3.70;;;;;;;31.91;21.43;94896.53;4756673;29;20446;-78